Time,TemperatureF,DewpointF,PressureIn,WindDirection,WindDirectionDegrees,WindSpeedMPH,WindSpeedGustMPH,Humidity,HourlyPrecipIn,Conditions,Clouds,dailyrainin,SoftwareType,DateUTC
2013-07-01 00:00:00,69.8,69.0,29.75,SE,135,0.0,0.0,97,0.00,,,0.00,weatherlink.com 1.10,2013-07-01 05:00:00,
2013-07-01 00:16:00,69.6,69.0,29.75,SE,135,0.0,0.0,97,0.00,,,0.00,weatherlink.com 1.10,2013-07-01 05:16:00,
2013-07-01 00:31:00,69.3,69.0,29.74,SE,135,0.0,0.0,97,0.00,,,0.00,weatherlink.com 1.10,2013-07-01 05:31:00,
2013-07-01 00:46:00,69.0,68.0,29.74,SE,135,0.0,0.0,97,0.00,,,0.00,weatherlink.com 1.10,2013-07-01 05:46:00,
2013-07-01 01:01:00,68.9,68.0,29.74,SE,135,0.0,0.0,97,0.00,,,0.00,weatherlink.com 1.10,2013-07-01 06:01:00,
2013-07-01 01:16:00,69.0,68.0,29.74,East,91,0.0,2.0,97,0.00,,,0.00,weatherlink.com 1.10,2013-07-01 06:16:00,
2013-07-01 01:31:00,69.0,68.0,29.75,East,93,0.0,0.0,97,0.00,,,0.00,weatherlink.com 1.10,2013-07-01 06:31:00,
2013-07-01 01:46:00,68.9,68.0,29.74,SSW,210,0.0,0.0,97,0.00,,,0.00,weatherlink.com 1.10,2013-07-01 06:46:00,
2013-07-01 02:01:00,68.8,68.0,29.74,ESE,110,0.0,1.0,97,0.00,,,0.00,weatherlink.com 1.10,2013-07-01 07:01:00,
2013-07-01 02:16:00,68.8,68.0,29.74,ESE,110,0.0,0.0,97,0.00,,,0.00,weatherlink.com 1.10,2013-07-01 07:16:00,
2013-07-01 02:31:00,68.4,68.0,29.74,NE,39,0.0,1.0,97,0.00,,,0.00,weatherlink.com 1.10,2013-07-01 07:31:00,
2013-07-01 02:46:00,68.0,67.0,29.74,NE,37,0.0,0.0,97,0.00,,,0.00,weatherlink.com 1.10,2013-07-01 07:46:00,
2013-07-01 03:01:00,67.9,67.0,29.74,NE,39,0.0,0.0,97,0.00,,,0.00,weatherlink.com 1.10,2013-07-01 08:01:00,
2013-07-01 03:16:00,67.5,67.0,29.74,NE,39,0.0,0.0,97,0.00,,,0.00,weatherlink.com 1.10,2013-07-01 08:16:00,
2013-07-01 03:31:00,67.4,67.0,29.75,NE,37,0.0,0.0,97,0.00,,,0.00,weatherlink.com 1.10,2013-07-01 08:31:00,
2013-07-01 03:46:00,67.4,67.0,29.75,NE,38,0.0,0.0,97,0.00,,,0.00,weatherlink.com 1.10,2013-07-01 08:46:00,
2013-07-01 04:01:00,67.5,67.0,29.75,NE,37,0.0,0.0,97,0.00,,,0.00,weatherlink.com 1.10,2013-07-01 09:01:00,
2013-07-01 04:16:00,67.5,67.0,29.75,NE,39,0.0,0.0,97,0.00,,,0.00,weatherlink.com 1.10,2013-07-01 09:16:00,
2013-07-01 04:31:00,67.3,67.0,29.75,NE,37,0.0,0.0,97,0.00,,,0.00,weatherlink.com 1.10,2013-07-01 09:31:00,
2013-07-01 04:46:00,67.3,67.0,29.76,NE,37,0.0,0.0,97,0.00,,,0.00,weatherlink.com 1.10,2013-07-01 09:46:00,
2013-07-01 05:01:00,67.8,67.0,29.76,SE,136,0.0,0.0,98,0.00,,,0.00,weatherlink.com 1.10,2013-07-01 10:01:00,
2013-07-01 05:16:00,67.4,67.0,29.76,SE,135,0.0,0.0,97,0.00,,,0.00,weatherlink.com 1.10,2013-07-01 10:16:00,
2013-07-01 05:31:00,67.7,67.0,29.77,SE,131,0.0,0.0,98,0.00,,,0.00,weatherlink.com 1.10,2013-07-01 10:31:00,
2013-07-01 05:46:00,67.6,67.0,29.77,SE,131,0.0,0.0,98,0.00,,,0.00,weatherlink.com 1.10,2013-07-01 10:46:00,
2013-07-01 06:01:00,67.5,67.0,29.77,SE,131,0.0,0.0,98,0.00,,,0.00,weatherlink.com 1.10,2013-07-01 11:01:00,
2013-07-01 06:16:00,67.4,67.0,29.77,SE,131,0.0,0.0,97,0.01,,,0.01,weatherlink.com 1.10,2013-07-01 11:16:00,
2013-07-01 06:31:00,67.8,67.0,29.77,SE,131,0.0,0.0,98,0.01,,,0.01,weatherlink.com 1.10,2013-07-01 11:31:00,
2013-07-01 06:46:00,69.2,69.0,29.77,SE,131,0.0,0.0,98,0.01,,,0.01,weatherlink.com 1.10,2013-07-01 11:46:00,
2013-07-01 07:01:00,69.8,69.0,29.78,NNW,346,0.0,0.0,98,0.01,,,0.01,weatherlink.com 1.10,2013-07-01 12:01:00,
2013-07-01 07:16:00,70.8,70.0,29.79,SE,136,0.0,2.0,98,0.00,,,0.01,weatherlink.com 1.10,2013-07-01 12:16:00,
2013-07-01 07:31:00,71.8,71.0,29.79,East,94,1.0,3.0,98,0.00,,,0.01,weatherlink.com 1.10,2013-07-01 12:31:00,
2013-07-01 07:46:00,72.8,72.0,29.79,SSW,210,0.0,3.0,98,0.00,,,0.01,weatherlink.com 1.10,2013-07-01 12:46:00,
2013-07-01 08:01:00,73.8,73.0,29.80,ESE,103,0.0,3.0,97,0.00,,,0.01,weatherlink.com 1.10,2013-07-01 13:01:00,
2013-07-01 08:16:00,74.7,74.0,29.80,South,174,1.0,2.0,97,0.00,,,0.01,weatherlink.com 1.10,2013-07-01 13:16:00,
2013-07-01 08:31:00,76.6,75.0,29.81,SSE,163,0.0,3.0,96,0.00,,,0.01,weatherlink.com 1.10,2013-07-01 13:31:00,
2013-07-01 08:46:00,77.6,76.0,29.80,SW,236,1.0,3.0,93,0.00,,,0.01,weatherlink.com 1.10,2013-07-01 13:46:00,
2013-07-01 09:02:00,79.6,76.0,29.80,NNW,347,1.0,2.0,88,0.00,,,0.01,weatherlink.com 1.10,2013-07-01 14:02:00,
2013-07-01 09:17:00,80.7,76.0,29.80,East,82,0.0,2.0,85,0.00,,,0.01,weatherlink.com 1.10,2013-07-01 14:17:00,
2013-07-01 09:32:00,82.8,77.0,29.80,WSW,245,1.0,4.0,82,0.00,,,0.01,weatherlink.com 1.10,2013-07-01 14:32:00,
2013-07-01 09:47:00,83.4,77.0,29.80,SSE,166,2.0,3.0,81,0.00,,,0.01,weatherlink.com 1.10,2013-07-01 14:47:00,
2013-07-01 10:03:00,82.9,77.0,29.81,ENE,70,0.0,3.0,82,0.00,,,0.01,weatherlink.com 1.10,2013-07-01 15:03:00,
2013-07-01 10:17:00,84.2,77.0,29.81,SSE,165,0.0,5.0,80,0.00,,,0.01,weatherlink.com 1.10,2013-07-01 15:17:00,
2013-07-01 10:32:00,85.7,78.0,29.81,SW,226,1.0,3.0,78,0.00,,,0.01,weatherlink.com 1.10,2013-07-01 15:32:00,
2013-07-01 10:47:00,86.3,78.0,29.81,SE,145,0.0,3.0,77,0.00,,,0.01,weatherlink.com 1.10,2013-07-01 15:47:00,
2013-07-01 11:02:00,86.2,78.0,29.81,NW,312,1.0,7.0,76,0.00,,,0.01,weatherlink.com 1.10,2013-07-01 16:02:00,
2013-07-01 11:17:00,86.4,78.0,29.81,SSW,201,1.0,6.0,75,0.00,,,0.01,weatherlink.com 1.10,2013-07-01 16:17:00,
2013-07-01 11:32:00,87.2,79.0,29.80,NW,311,2.0,7.0,76,0.00,,,0.01,weatherlink.com 1.10,2013-07-01 16:32:00,
2013-07-01 12:02:00,85.3,78.0,29.79,ESE,120,0.0,2.0,79,0.00,,,0.01,weatherlink.com 1.10,2013-07-01 17:02:00,
2013-07-01 12:17:00,78.3,74.0,29.79,East,79,0.0,11.0,87,0.26,,,0.27,weatherlink.com 1.10,2013-07-01 17:17:00,
2013-07-01 12:32:00,82.0,77.0,29.79,East,99,1.0,1.0,85,0.26,,,0.27,weatherlink.com 1.10,2013-07-01 17:32:00,
2013-07-01 12:47:00,84.7,78.0,29.79,SW,229,0.0,1.0,81,0.26,,,0.27,weatherlink.com 1.10,2013-07-01 17:47:00,
2013-07-01 13:02:00,86.0,78.0,29.79,West,277,0.0,2.0,76,0.26,,,0.27,weatherlink.com 1.10,2013-07-01 18:02:00,
2013-07-01 13:18:00,84.0,78.0,29.79,SE,141,1.0,2.0,82,0.00,,,0.27,weatherlink.com 1.10,2013-07-01 18:18:00,
2013-07-01 13:32:00,82.9,78.0,29.78,NNE,30,0.0,3.0,85,0.00,,,0.27,weatherlink.com 1.10,2013-07-01 18:32:00,
2013-07-01 13:47:00,82.6,77.0,29.78,NNE,32,0.0,6.0,84,0.00,,,0.27,weatherlink.com 1.10,2013-07-01 18:47:00,
2013-07-01 14:02:00,81.7,77.0,29.78,NNW,334,1.0,4.0,85,0.00,,,0.27,weatherlink.com 1.10,2013-07-01 19:02:00,
2013-07-01 14:17:00,80.6,76.0,29.78,NE,46,3.0,6.0,85,0.00,,,0.27,weatherlink.com 1.10,2013-07-01 19:17:00,
2013-07-01 14:32:00,79.9,75.0,29.78,ESE,105,2.0,3.0,85,0.00,,,0.27,weatherlink.com 1.10,2013-07-01 19:32:00,
2013-07-01 14:47:00,79.0,75.0,29.79,North,1,1.0,3.0,88,0.00,,,0.27,weatherlink.com 1.10,2013-07-01 19:47:00,
2013-07-01 15:02:00,82.0,76.0,29.78,SE,134,0.0,4.0,82,0.00,,,0.27,weatherlink.com 1.10,2013-07-01 20:02:00,
2013-07-01 15:17:00,84.6,77.0,29.78,ENE,73,0.0,4.0,77,0.00,,,0.27,weatherlink.com 1.10,2013-07-01 20:17:00,
2013-07-01 15:32:00,85.6,77.0,29.78,NNW,345,3.0,3.0,75,0.00,,,0.27,weatherlink.com 1.10,2013-07-01 20:32:00,
2013-07-01 15:47:00,85.8,76.0,29.78,North,1,4.0,6.0,73,0.00,,,0.27,weatherlink.com 1.10,2013-07-01 20:47:00,
2013-07-01 16:02:00,85.5,78.0,29.78,ESE,111,1.0,4.0,78,0.00,,,0.27,weatherlink.com 1.10,2013-07-01 21:02:00,
2013-07-01 16:17:00,86.2,77.0,29.78,ENE,70,3.0,4.0,75,0.00,,,0.27,weatherlink.com 1.10,2013-07-01 21:17:00,
2013-07-01 16:32:00,85.7,76.0,29.78,East,84,2.0,4.0,73,0.00,,,0.27,weatherlink.com 1.10,2013-07-01 21:32:00,
2013-07-01 16:47:00,85.3,77.0,29.78,ENE,77,0.0,1.0,76,0.00,,,0.27,weatherlink.com 1.10,2013-07-01 21:47:00,
2013-07-01 17:02:00,84.4,77.0,29.78,East,94,0.0,1.0,77,0.00,,,0.27,weatherlink.com 1.10,2013-07-01 22:02:00,
2013-07-01 17:17:00,85.0,78.0,29.77,ENE,72,0.0,0.0,80,0.00,,,0.27,weatherlink.com 1.10,2013-07-01 22:17:00,
2013-07-01 17:32:00,84.3,78.0,29.78,ESE,106,1.0,5.0,80,0.00,,,0.27,weatherlink.com 1.10,2013-07-01 22:32:00,
2013-07-01 17:47:00,83.5,77.0,29.79,NE,53,0.0,5.0,81,0.00,,,0.27,weatherlink.com 1.10,2013-07-01 22:47:00,
2013-07-01 18:02:00,82.9,78.0,29.80,ESE,114,0.0,3.0,84,0.00,,,0.27,weatherlink.com 1.10,2013-07-01 23:02:00,
2013-07-01 18:17:00,82.3,77.0,29.80,East,84,0.0,2.0,84,0.00,,,0.27,weatherlink.com 1.10,2013-07-01 23:17:00,
2013-07-01 18:32:00,81.8,76.0,29.81,NE,56,1.0,2.0,82,0.00,,,0.27,weatherlink.com 1.10,2013-07-01 23:32:00,
2013-07-01 18:47:00,81.6,76.0,29.82,East,91,0.0,3.0,84,0.00,,,0.27,weatherlink.com 1.10,2013-07-01 23:47:00,
2013-07-01 19:02:00,81.1,76.0,29.82,East,91,0.0,2.0,85,0.00,,,0.27,weatherlink.com 1.10,2013-07-02 00:02:00,
2013-07-01 19:17:00,80.4,76.0,29.82,East,91,0.0,1.0,85,0.00,,,0.27,weatherlink.com 1.10,2013-07-02 00:17:00,
2013-07-01 19:32:00,79.5,75.0,29.83,NE,44,0.0,1.0,87,0.00,,,0.27,weatherlink.com 1.10,2013-07-02 00:32:00,
2013-07-01 19:47:00,78.0,75.0,29.83,NNE,21,0.0,1.0,90,0.00,,,0.27,weatherlink.com 1.10,2013-07-02 00:47:00,
2013-07-01 20:02:00,77.1,75.0,29.83,NE,37,0.0,0.0,92,0.00,,,0.27,weatherlink.com 1.10,2013-07-02 01:02:00,
2013-07-01 20:17:00,77.5,75.0,29.83,NNW,337,0.0,4.0,91,0.00,,,0.27,weatherlink.com 1.10,2013-07-02 01:17:00,
2013-07-01 20:32:00,77.2,75.0,29.84,ENE,65,1.0,1.0,92,0.00,,,0.27,weatherlink.com 1.10,2013-07-02 01:32:00,
2013-07-01 20:47:00,77.0,74.0,29.84,ESE,103,0.0,4.0,90,0.00,,,0.27,weatherlink.com 1.10,2013-07-02 01:47:00,
2013-07-01 21:02:00,76.6,74.0,29.84,NE,46,0.0,3.0,90,0.01,,,0.28,weatherlink.com 1.10,2013-07-02 02:02:00,
2013-07-01 21:17:00,75.1,73.0,29.85,NNE,25,0.0,1.0,94,0.01,,,0.28,weatherlink.com 1.10,2013-07-02 02:17:00,
2013-07-01 21:32:00,74.2,72.0,29.87,South,181,1.0,3.0,94,0.01,,,0.28,weatherlink.com 1.10,2013-07-02 02:32:00,
2013-07-01 21:47:00,73.3,72.0,29.89,NW,326,1.0,5.0,94,0.02,,,0.29,weatherlink.com 1.10,2013-07-02 02:47:00,
2013-07-01 22:02:00,72.1,71.0,29.88,NE,37,1.0,4.0,96,0.04,,,0.32,weatherlink.com 1.10,2013-07-02 03:02:00,
2013-07-01 22:17:00,71.3,70.0,29.87,North,3,0.0,3.0,96,0.07,,,0.35,weatherlink.com 1.10,2013-07-02 03:17:00,
2013-07-01 22:32:00,71.0,70.0,29.86,NNW,337,0.0,2.0,96,0.08,,,0.36,weatherlink.com 1.10,2013-07-02 03:32:00,
2013-07-01 22:48:00,71.2,70.0,29.87,East,96,0.0,1.0,97,0.07,,,0.36,weatherlink.com 1.10,2013-07-02 03:48:00,
2013-07-01 23:03:00,71.1,70.0,29.88,NNW,328,0.0,2.0,97,0.04,,,0.36,weatherlink.com 1.10,2013-07-02 04:03:00,
2013-07-01 23:18:00,71.3,70.0,29.88,ENE,67,0.0,1.0,97,0.01,,,0.36,weatherlink.com 1.10,2013-07-02 04:18:00,
2013-07-01 23:33:00,71.2,70.0,29.87,ENE,67,0.0,0.0,97,0.00,,,0.36,weatherlink.com 1.10,2013-07-02 04:33:00,
2013-07-01 23:48:00,71.1,70.0,29.87,SSE,157,0.0,0.0,97,0.00,,,0.36,weatherlink.com 1.10,2013-07-02 04:48:00,